createdAt,value
2019-03-18T00:00:39.325Z,99.90
2019-03-18T00:03:09.053Z,99.90
2019-03-18T00:05:38.738Z,99.90
2019-03-18T00:08:08.503Z,99.90
2019-03-18T00:10:38.175Z,99.90
2019-03-18T00:13:07.977Z,99.90
2019-03-18T00:15:37.656Z,99.90
2019-03-18T00:18:07.369Z,99.90
2019-03-18T00:20:37.085Z,99.90
2019-03-18T00:23:08.429Z,99.90
2019-03-18T00:25:38.395Z,99.90
2019-03-18T00:28:08.258Z,99.90
2019-03-18T00:30:38.121Z,99.90
2019-03-18T00:33:07.895Z,99.90
2019-03-18T00:35:37.562Z,99.90
2019-03-18T00:38:07.194Z,99.90
2019-03-18T00:40:37.010Z,99.90
2019-03-18T00:43:06.822Z,99.90
2019-03-18T00:45:36.636Z,99.90
2019-03-18T00:48:06.774Z,99.90
2019-03-18T00:50:36.422Z,99.90
2019-03-18T00:53:06.120Z,99.90
2019-03-18T00:55:35.786Z,99.90
2019-03-18T00:58:05.408Z,99.90
2019-03-18T01:00:35.025Z,99.90
2019-03-18T01:03:04.974Z,99.90
2019-03-18T01:05:34.559Z,99.90
2019-03-18T01:08:04.232Z,99.90
2019-03-18T01:10:33.863Z,99.90
2019-03-18T01:13:03.699Z,99.90
2019-03-18T01:15:33.332Z,99.90
2019-03-18T01:18:03.318Z,99.90
2019-03-18T01:20:33.130Z,99.90
2019-03-18T01:23:02.793Z,99.90
2019-03-18T01:25:32.373Z,99.90
2019-03-18T01:28:02.290Z,99.90
2019-03-18T01:30:31.908Z,99.90
2019-03-18T01:33:01.577Z,99.90
2019-03-18T01:35:31.251Z,99.90
2019-03-18T01:38:01.092Z,99.90
2019-03-18T01:40:30.709Z,99.90
2019-03-18T01:43:00.316Z,99.90
2019-03-18T01:45:40.188Z,99.90
2019-03-18T01:48:01.299Z,99.90
2019-03-18T01:50:31.094Z,99.90
2019-03-18T01:53:00.766Z,99.90
2019-03-18T01:55:30.505Z,99.90
2019-03-18T01:58:00.169Z,99.90
2019-03-18T02:00:29.939Z,99.90
2019-03-18T02:02:59.558Z,99.90
2019-03-18T02:05:29.308Z,99.90
2019-03-18T02:07:58.994Z,99.90
2019-03-18T02:10:28.702Z,99.90
2019-03-18T02:12:58.408Z,99.90
2019-03-18T02:15:28.132Z,99.90
2019-03-18T02:17:57.847Z,99.90
2019-03-18T02:20:27.477Z,99.90
2019-03-18T02:22:57.063Z,99.90
2019-03-18T02:25:26.661Z,99.90
2019-03-18T02:27:56.336Z,99.90
2019-03-18T02:30:26.024Z,99.90
2019-03-18T02:32:55.684Z,99.90
2019-03-18T02:35:25.499Z,99.90
2019-03-18T02:37:55.155Z,99.90
2019-03-18T02:40:24.824Z,99.90
2019-03-18T02:42:54.475Z,99.90
2019-03-18T02:45:24.791Z,99.90
2019-03-18T02:47:54.752Z,99.90
2019-03-18T02:50:24.371Z,99.90
2019-03-18T02:52:54.075Z,99.90
2019-03-18T02:55:24.027Z,99.90
2019-03-18T02:57:53.724Z,99.90
2019-03-18T03:00:23.512Z,99.90
2019-03-18T03:02:53.143Z,99.90
2019-03-18T03:05:22.809Z,99.90
2019-03-18T03:07:52.683Z,99.90
2019-03-18T03:10:22.304Z,99.90
2019-03-18T03:12:51.972Z,99.90
2019-03-18T03:15:21.663Z,99.90
2019-03-18T03:17:51.424Z,99.90
2019-03-18T03:20:21.083Z,99.90
2019-03-18T03:22:50.812Z,99.90
2019-03-18T03:25:24.515Z,99.90
2019-03-18T03:27:51.931Z,99.90
2019-03-18T03:30:21.575Z,99.90
2019-03-18T03:32:51.495Z,99.90
2019-03-18T03:35:21.156Z,99.90
2019-03-18T03:37:50.788Z,99.90
2019-03-18T03:40:22.181Z,99.90
2019-03-18T03:42:51.829Z,99.90
2019-03-18T03:45:21.621Z,99.90
2019-03-18T03:47:51.288Z,99.90
2019-03-18T03:50:20.942Z,99.90
2019-03-18T03:52:50.585Z,99.90
2019-03-18T03:55:20.214Z,99.90
2019-03-18T03:57:50.016Z,99.90
2019-03-18T04:00:19.640Z,99.90
2019-03-18T04:02:49.439Z,99.90
2019-03-18T04:05:19.227Z,99.90
2019-03-18T04:07:48.930Z,99.90
2019-03-18T04:10:18.555Z,99.90
2019-03-18T04:12:48.421Z,99.90
2019-03-18T04:15:18.167Z,99.90
2019-03-18T04:17:47.796Z,99.90
2019-03-18T04:20:17.751Z,99.90
2019-03-18T04:22:47.510Z,99.90
2019-03-18T04:25:17.166Z,99.90
2019-03-18T04:27:46.988Z,99.90
2019-03-18T04:30:16.726Z,99.90
2019-03-18T04:32:46.365Z,99.90
2019-03-18T04:35:16.027Z,99.90
2019-03-18T04:37:45.670Z,99.90
2019-03-18T04:40:15.444Z,99.90
2019-03-18T04:42:45.097Z,99.90
2019-03-18T04:45:14.801Z,99.90
2019-03-18T04:47:44.462Z,99.90
2019-03-18T04:50:14.227Z,99.90
2019-03-18T04:52:43.849Z,99.90
2019-03-18T04:55:13.543Z,99.90
2019-03-18T04:57:43.184Z,99.90
2019-03-18T05:00:13.992Z,99.90
2019-03-18T05:02:43.671Z,99.90
2019-03-18T05:05:13.453Z,99.90
2019-03-18T05:07:43.156Z,99.90
2019-03-18T05:10:13.226Z,99.90
2019-03-18T05:12:43.064Z,99.90
2019-03-18T05:15:12.863Z,99.90
2019-03-18T05:17:42.549Z,99.90
2019-03-18T05:20:12.517Z,99.90
2019-03-18T05:22:42.279Z,99.90
2019-03-18T05:25:11.966Z,99.90
2019-03-18T05:27:41.666Z,99.90
2019-03-18T05:30:13.486Z,99.90
2019-03-18T05:32:43.276Z,99.90
2019-03-18T05:35:13.046Z,99.90
2019-03-18T05:37:42.870Z,99.90
2019-03-18T05:40:12.790Z,99.90
2019-03-18T05:42:42.567Z,99.90
2019-03-18T05:45:12.361Z,99.90
2019-03-18T05:47:42.096Z,99.90
2019-03-18T05:50:12.202Z,99.90
2019-03-18T05:52:41.891Z,99.90
2019-03-18T05:55:11.588Z,99.90
2019-03-18T05:57:41.331Z,99.90
2019-03-18T06:00:12.685Z,99.90
2019-03-18T06:02:42.697Z,99.90
2019-03-18T06:05:12.441Z,99.90
2019-03-18T06:07:42.127Z,99.90
2019-03-18T06:10:12.939Z,99.90
2019-03-18T06:12:42.642Z,99.90
2019-03-18T06:15:13.225Z,99.90
2019-03-18T06:17:52.199Z,99.90
2019-03-18T06:20:14.213Z,99.90
2019-03-18T06:22:43.827Z,99.90
2019-03-18T06:25:13.580Z,99.90
2019-03-18T06:27:43.301Z,99.90
2019-03-18T06:30:14.874Z,99.90
2019-03-18T06:32:44.927Z,99.90
2019-03-18T06:35:14.977Z,99.90
2019-03-18T06:37:44.679Z,99.90
2019-03-18T06:40:15.126Z,99.90
2019-03-18T06:42:44.897Z,99.90
2019-03-18T06:45:14.659Z,99.90
2019-03-18T06:47:44.280Z,99.90
2019-03-18T06:50:14.035Z,99.90
2019-03-18T06:52:43.716Z,99.90
2019-03-18T06:55:14.433Z,99.90
2019-03-18T06:57:44.168Z,99.90
2019-03-18T07:00:15.517Z,99.90
2019-03-18T07:02:45.578Z,99.90
2019-03-18T07:05:17.004Z,99.90
2019-03-18T07:07:52.853Z,99.90
2019-03-18T07:10:22.854Z,99.90
2019-03-18T07:12:52.927Z,99.90
2019-03-18T07:15:22.852Z,99.90
2019-03-18T07:17:52.764Z,99.90
2019-03-18T07:20:22.514Z,99.90
2019-03-18T07:22:52.192Z,99.90
2019-03-18T07:25:22.048Z,99.90
2019-03-18T07:27:51.846Z,99.90
2019-03-18T07:30:21.459Z,99.90
2019-03-18T07:32:51.191Z,99.90
2019-03-18T07:35:20.802Z,99.90
2019-03-18T07:37:50.708Z,99.90
2019-03-18T07:40:20.327Z,99.90
2019-03-18T07:42:50.103Z,99.90
2019-03-18T07:45:19.763Z,99.90
2019-03-18T07:47:49.541Z,99.90
2019-03-18T07:50:19.307Z,99.90
2019-03-18T07:52:49.053Z,99.90
2019-03-18T07:55:18.721Z,99.90
2019-03-18T07:57:48.381Z,99.90
2019-03-18T08:00:18.177Z,99.90
2019-03-18T08:02:47.841Z,99.90
2019-03-18T08:05:17.615Z,99.90
2019-03-18T08:07:47.264Z,99.90
2019-03-18T08:10:16.978Z,99.90
2019-03-18T08:12:46.689Z,99.90
2019-03-18T08:15:16.299Z,99.90
2019-03-18T08:17:45.982Z,99.90
2019-03-18T08:20:15.622Z,99.90
2019-03-18T08:22:45.316Z,99.90
2019-03-18T08:25:15.085Z,99.90
2019-03-18T08:27:45.007Z,99.90
2019-03-18T08:30:16.127Z,99.90
2019-03-18T08:32:45.890Z,99.90
2019-03-18T08:35:15.640Z,99.90
2019-03-18T08:37:45.474Z,99.90
2019-03-18T08:40:15.228Z,99.90
2019-03-18T08:42:44.876Z,99.90
2019-03-18T08:45:14.708Z,99.90
2019-03-18T08:47:44.496Z,99.90
2019-03-18T08:50:14.225Z,99.90
2019-03-18T08:52:44.007Z,99.90
2019-03-18T08:55:13.692Z,99.90
2019-03-18T08:57:43.427Z,99.90
2019-03-18T09:00:14.917Z,99.90
2019-03-18T09:02:44.767Z,99.90
2019-03-18T09:05:14.473Z,99.90
2019-03-18T09:07:44.235Z,99.90
2019-03-18T09:10:15.039Z,99.90
2019-03-18T09:12:44.926Z,99.90
2019-03-18T09:15:16.121Z,93.50
2019-03-18T09:17:45.743Z,96.80
2019-03-18T09:20:17.414Z,97.00
2019-03-18T09:22:47.199Z,96.20
2019-03-18T09:25:17.000Z,97.00
2019-03-18T09:27:46.713Z,95.90
2019-03-18T09:30:17.993Z,98.80
2019-03-18T09:32:47.795Z,98.90
2019-03-18T09:35:17.780Z,99.90
2019-03-18T09:37:47.614Z,99.90
2019-03-18T09:40:17.794Z,99.90
2019-03-18T09:42:47.554Z,99.90
2019-03-18T09:45:18.204Z,99.90
2019-03-18T09:47:48.053Z,99.90
2019-03-18T09:50:17.831Z,99.90
2019-03-18T09:52:47.507Z,99.70
2019-03-18T09:55:17.328Z,99.90
2019-03-18T09:57:46.987Z,99.90
2019-03-18T10:00:19.100Z,98.90
2019-03-18T10:02:48.862Z,99.90
2019-03-18T10:05:18.778Z,99.90
2019-03-18T10:07:48.535Z,97.30
2019-03-18T10:10:18.322Z,95.90
2019-03-18T10:12:48.046Z,95.00
2019-03-18T10:15:20.102Z,95.20
2019-03-18T10:17:49.911Z,90.60
2019-03-18T10:20:19.568Z,90.50
2019-03-18T10:22:49.383Z,89.20
2019-03-18T10:25:19.296Z,90.70
2019-03-18T10:27:48.939Z,90.60
2019-03-18T10:30:18.632Z,91.50
2019-03-18T10:32:48.432Z,92.20
2019-03-18T10:35:18.409Z,93.90
2019-03-18T10:37:48.159Z,92.90
2019-03-18T10:40:17.938Z,91.40
2019-03-18T10:42:47.666Z,91.90
2019-03-18T10:45:17.489Z,92.20
2019-03-18T10:47:47.305Z,92.90
2019-03-18T10:50:17.994Z,93.80
2019-03-18T10:52:47.702Z,93.60
2019-03-18T10:55:17.476Z,91.90
2019-03-18T10:57:47.091Z,92.80
2019-03-18T11:00:17.972Z,92.00
2019-03-18T11:02:47.978Z,93.60
2019-03-18T11:05:17.843Z,91.90
2019-03-18T11:07:47.563Z,94.50
2019-03-18T11:10:17.701Z,93.30
2019-03-18T11:12:47.361Z,95.20
2019-03-18T11:15:19.232Z,93.40
2019-03-18T11:17:49.103Z,92.80
2019-03-18T11:20:19.234Z,92.30
2019-03-18T11:22:49.029Z,90.60
2019-03-18T11:25:18.886Z,90.90
2019-03-18T11:27:48.562Z,85.50
2019-03-18T11:30:19.367Z,91.50
2019-03-18T11:32:49.306Z,91.20
2019-03-18T11:35:19.226Z,91.40
2019-03-18T11:37:49.070Z,92.40
2019-03-18T11:40:20.632Z,93.40
2019-03-18T11:42:50.296Z,97.40
2019-03-18T11:45:19.976Z,98.90
2019-03-18T11:47:49.760Z,99.90
2019-03-18T11:50:20.599Z,96.80
2019-03-18T11:52:50.460Z,94.90
2019-03-18T11:55:22.383Z,97.40
2019-03-18T11:57:52.210Z,95.20
2019-03-18T12:00:23.283Z,95.00
2019-03-18T12:02:54.332Z,96.70
2019-03-18T12:05:26.430Z,94.40
2019-03-18T12:07:56.514Z,91.90
2019-03-18T12:10:26.341Z,92.70
2019-03-18T12:12:56.293Z,91.60
2019-03-18T12:15:28.859Z,92.00
2019-03-18T12:17:58.428Z,90.90
2019-03-18T12:20:28.218Z,88.50
2019-03-18T12:22:58.153Z,86.50
2019-03-18T12:25:27.976Z,86.40
2019-03-18T12:27:57.952Z,91.30
2019-03-18T12:30:28.959Z,93.10
2019-03-18T12:32:58.618Z,90.70
2019-03-18T12:35:28.293Z,88.50
2019-03-18T12:37:59.675Z,90.10
2019-03-18T12:40:29.537Z,89.50
2019-03-18T12:42:59.381Z,80.50
2019-03-18T12:45:29.305Z,87.20
2019-03-18T12:47:59.075Z,88.50
2019-03-18T12:50:49.196Z,86.20
2019-03-18T12:53:01.477Z,88.40
2019-03-18T12:55:31.356Z,87.70
2019-03-18T12:58:01.195Z,83.40
2019-03-18T13:00:33.068Z,85.90
2019-03-18T13:03:02.846Z,83.90
2019-03-18T13:05:32.520Z,81.40
2019-03-18T13:08:02.244Z,91.10
2019-03-18T13:10:31.848Z,84.00
2019-03-18T13:13:01.680Z,86.30
2019-03-18T13:15:31.503Z,82.00
2019-03-18T13:18:01.329Z,85.90
2019-03-18T13:20:31.068Z,82.70
2019-03-18T13:23:00.895Z,78.60
2019-03-18T13:25:30.837Z,81.90
2019-03-18T13:28:00.694Z,84.00
2019-03-18T13:30:31.750Z,79.00
2019-03-18T13:33:01.491Z,78.90
2019-03-18T13:35:31.311Z,75.60
2019-03-18T13:38:01.358Z,79.10
2019-03-18T13:40:31.273Z,77.20
2019-03-18T13:43:00.949Z,81.10
2019-03-18T13:45:30.744Z,87.40
2019-03-18T13:48:02.010Z,84.70
2019-03-18T13:50:31.838Z,80.20
2019-03-18T13:53:01.677Z,81.80
2019-03-18T13:55:31.267Z,84.30
2019-03-18T13:58:00.937Z,85.30
2019-03-18T14:00:31.394Z,82.40
2019-03-18T14:03:01.246Z,77.50
2019-03-18T14:05:31.090Z,78.10
2019-03-18T14:08:02.630Z,81.40
2019-03-18T14:10:32.387Z,77.90
2019-03-18T14:13:01.996Z,76.80
2019-03-18T14:15:31.904Z,83.50
2019-03-18T14:18:01.615Z,84.10
2019-03-18T14:20:31.235Z,81.70
2019-03-18T14:23:00.920Z,84.70
2019-03-18T14:25:30.780Z,79.30
2019-03-18T14:28:00.599Z,86.00
2019-03-18T14:30:30.433Z,81.80
2019-03-18T14:33:00.197Z,76.60
2019-03-18T14:35:29.885Z,82.80
2019-03-18T14:38:00.137Z,77.60
2019-03-18T14:40:29.879Z,79.70
2019-03-18T14:42:59.510Z,78.80
2019-03-18T14:45:29.334Z,78.20
2019-03-18T14:47:59.197Z,77.90
2019-03-18T14:50:29.072Z,79.60
2019-03-18T14:52:58.691Z,79.40
2019-03-18T14:55:28.329Z,80.70
2019-03-18T14:57:58.076Z,83.10
2019-03-18T15:00:28.929Z,82.60
2019-03-18T15:02:58.618Z,83.10
2019-03-18T15:05:28.348Z,82.20
2019-03-18T15:07:58.349Z,81.50
2019-03-18T15:10:29.801Z,80.40
2019-03-18T15:12:59.490Z,79.70
2019-03-18T15:15:29.161Z,84.00
2019-03-18T15:17:58.929Z,82.30
2019-03-18T15:20:29.282Z,82.60
2019-03-18T15:22:59.058Z,81.00
2019-03-18T15:25:31.180Z,81.40
2019-03-18T15:28:00.853Z,80.90
2019-03-18T15:30:30.534Z,84.10
2019-03-18T15:33:01.285Z,86.10
2019-03-18T15:35:31.061Z,83.30
2019-03-18T15:38:00.678Z,87.70
2019-03-18T15:40:30.734Z,92.50
2019-03-18T15:43:00.354Z,91.60
2019-03-18T15:45:30.174Z,91.20
2019-03-18T15:48:01.202Z,93.50
2019-03-18T15:50:31.051Z,91.20
2019-03-18T15:53:00.802Z,97.90
2019-03-18T15:55:30.546Z,94.70
2019-03-18T15:58:00.274Z,95.30
2019-03-18T16:00:31.803Z,96.50
2019-03-18T16:03:01.624Z,90.90
2019-03-18T16:05:31.343Z,92.50
2019-03-18T16:08:01.076Z,91.80
2019-03-18T16:10:30.715Z,92.90
2019-03-18T16:13:00.364Z,94.70
2019-03-18T16:15:30.037Z,93.50
2019-03-18T16:17:59.653Z,93.50
2019-03-18T16:20:29.456Z,94.20
2019-03-18T16:22:59.287Z,94.20
2019-03-18T16:25:28.985Z,94.60
2019-03-18T16:27:58.705Z,93.50
2019-03-18T16:30:28.463Z,94.50
2019-03-18T16:32:58.193Z,94.00
2019-03-18T16:35:27.823Z,94.40
2019-03-18T16:37:57.613Z,94.80
2019-03-18T16:40:27.315Z,94.80
2019-03-18T16:42:57.123Z,94.40
2019-03-18T16:45:26.907Z,95.20
2019-03-18T16:47:56.731Z,93.70
2019-03-18T16:50:28.383Z,93.80
2019-03-18T16:52:58.097Z,92.20
2019-03-18T16:55:27.799Z,92.90
2019-03-18T16:57:57.495Z,92.60
2019-03-18T17:00:28.065Z,92.90
2019-03-18T17:02:57.768Z,94.50
2019-03-18T17:05:27.447Z,95.20
2019-03-18T17:07:57.316Z,95.30
2019-03-18T17:10:27.073Z,95.40
2019-03-18T17:12:56.785Z,96.20
2019-03-18T17:15:26.537Z,94.30
2019-03-18T17:17:56.191Z,96.20
2019-03-18T17:20:27.058Z,95.70
2019-03-18T17:22:56.705Z,96.20
2019-03-18T17:25:29.752Z,97.50
2019-03-18T17:27:59.529Z,96.90
2019-03-18T17:30:29.241Z,95.10
2019-03-18T17:32:58.996Z,98.80
2019-03-18T17:35:28.736Z,97.90
2019-03-18T17:37:58.334Z,96.40
2019-03-18T17:40:28.059Z,97.30
2019-03-18T17:42:58.755Z,95.60
2019-03-18T17:45:28.386Z,96.00
2019-03-18T17:47:58.193Z,96.50
2019-03-18T17:50:29.298Z,98.30
2019-03-18T17:53:02.980Z,98.50
2019-03-18T17:55:30.684Z,97.80
2019-03-18T17:58:00.353Z,97.70
2019-03-18T18:00:32.760Z,98.80
2019-03-18T18:03:02.404Z,99.90
2019-03-18T18:05:32.042Z,99.90
2019-03-18T18:08:01.785Z,99.90
2019-03-18T18:10:31.374Z,99.90
2019-03-18T18:13:01.103Z,99.90
2019-03-18T18:15:30.842Z,99.90
2019-03-18T18:18:00.592Z,99.90
2019-03-18T18:20:30.302Z,99.90
2019-03-18T18:23:00.014Z,99.90
2019-03-18T18:25:29.681Z,99.90
2019-03-18T18:27:59.379Z,99.90
2019-03-18T18:30:29.089Z,99.90
2019-03-18T18:32:59.869Z,99.90
2019-03-18T18:35:29.444Z,99.90
2019-03-18T18:37:59.152Z,99.90
2019-03-18T18:40:29.789Z,99.90
2019-03-18T18:42:59.631Z,99.90
2019-03-18T18:45:29.281Z,99.90
2019-03-18T18:47:58.972Z,99.90
2019-03-18T18:50:28.586Z,99.90
2019-03-18T18:52:58.271Z,99.90
2019-03-18T18:55:28.008Z,99.90
2019-03-18T18:57:57.644Z,99.90
2019-03-18T19:00:27.360Z,99.90
2019-03-18T19:02:57.131Z,99.90
2019-03-18T19:05:26.889Z,99.90
2019-03-18T19:07:57.729Z,99.90
2019-03-18T19:10:27.852Z,99.90
2019-03-18T19:12:57.598Z,99.90
2019-03-18T19:15:29.728Z,99.90
2019-03-18T19:17:59.409Z,99.90
2019-03-18T19:20:29.077Z,99.90
2019-03-18T19:22:59.058Z,99.90
2019-03-18T19:25:28.700Z,99.90
2019-03-18T19:27:58.605Z,99.90
2019-03-18T19:30:29.038Z,99.90
2019-03-18T19:32:58.865Z,99.90
2019-03-18T19:35:28.879Z,99.90
2019-03-18T19:37:58.790Z,99.90
2019-03-18T19:40:28.543Z,99.90
2019-03-18T19:42:58.236Z,99.90
2019-03-18T19:45:27.835Z,99.90
2019-03-18T19:47:57.525Z,99.90
2019-03-18T19:50:29.193Z,99.90
2019-03-18T19:52:59.085Z,99.90
2019-03-18T19:55:29.869Z,99.90
2019-03-18T19:57:59.774Z,99.90
2019-03-18T20:00:30.480Z,99.90
2019-03-18T20:03:00.397Z,99.90
2019-03-18T20:05:30.085Z,99.90
2019-03-18T20:07:59.959Z,99.90
2019-03-18T20:10:29.743Z,99.90
2019-03-18T20:12:59.437Z,99.90
2019-03-18T20:15:29.200Z,99.90
2019-03-18T20:17:58.990Z,99.90
2019-03-18T20:20:28.681Z,99.90
2019-03-18T20:22:58.400Z,99.90
2019-03-18T20:25:28.199Z,99.90
2019-03-18T20:27:57.911Z,99.90
2019-03-18T20:30:27.721Z,99.90
2019-03-18T20:32:57.493Z,99.90
2019-03-18T20:35:27.299Z,99.90
2019-03-18T20:37:57.066Z,99.90
2019-03-18T20:40:26.712Z,99.90
2019-03-18T20:42:56.405Z,99.90
2019-03-18T20:45:26.701Z,99.90
2019-03-18T20:47:56.330Z,99.90
2019-03-18T20:50:26.153Z,99.90
2019-03-18T20:52:55.920Z,99.90
2019-03-18T20:55:25.560Z,99.90
2019-03-18T20:57:55.176Z,99.90
2019-03-18T21:00:25.353Z,99.90
2019-03-18T21:02:55.272Z,99.90
2019-03-18T21:05:25.553Z,99.90
2019-03-18T21:07:55.387Z,99.90
2019-03-18T21:10:25.017Z,99.90
2019-03-18T21:12:54.850Z,99.90
2019-03-18T21:15:24.575Z,99.90
2019-03-18T21:17:54.180Z,99.90
2019-03-18T21:20:26.572Z,99.90
2019-03-18T21:22:56.290Z,99.90
2019-03-18T21:25:27.451Z,99.90
2019-03-18T21:27:57.256Z,99.90
2019-03-18T21:30:27.008Z,99.90
2019-03-18T21:32:56.745Z,99.90
2019-03-18T21:35:26.486Z,99.90
2019-03-18T21:37:56.147Z,99.90
2019-03-18T21:40:25.917Z,99.90
2019-03-18T21:42:55.643Z,99.90
2019-03-18T21:45:25.391Z,99.90
2019-03-18T21:48:07.570Z,99.90
2019-03-18T21:50:37.211Z,99.90
2019-03-18T21:53:06.917Z,99.90
2019-03-18T21:55:36.548Z,99.90
2019-03-18T21:58:06.471Z,99.90
2019-03-18T22:00:36.081Z,99.90
2019-03-18T22:03:05.885Z,99.90
2019-03-18T22:05:35.541Z,99.90
2019-03-18T22:08:05.313Z,99.90
2019-03-18T22:10:34.999Z,99.90
2019-03-18T22:13:04.797Z,99.90
2019-03-18T22:15:34.549Z,99.90
2019-03-18T22:18:04.421Z,99.90
2019-03-18T22:20:34.302Z,99.90
2019-03-18T22:23:04.001Z,99.90
2019-03-18T22:25:34.718Z,99.90
2019-03-18T22:28:04.866Z,99.90
2019-03-18T22:30:34.544Z,99.90
2019-03-18T22:33:04.372Z,99.90
2019-03-18T22:35:34.018Z,99.90
2019-03-18T22:38:03.815Z,99.90
2019-03-18T22:40:33.524Z,99.90
2019-03-18T22:43:03.196Z,99.90
2019-03-18T22:45:32.909Z,99.90
2019-03-18T22:48:02.782Z,99.90
2019-03-18T22:50:32.406Z,99.90
2019-03-18T22:53:02.085Z,99.90
2019-03-18T22:55:31.748Z,99.90
2019-03-18T22:58:01.432Z,99.90
2019-03-18T23:00:33.126Z,99.90
2019-03-18T23:03:02.940Z,99.90
2019-03-18T23:05:32.726Z,99.90
2019-03-18T23:08:02.618Z,99.90
2019-03-18T23:10:32.960Z,99.90
2019-03-18T23:13:02.662Z,99.90
2019-03-18T23:15:32.441Z,99.90
2019-03-18T23:18:02.219Z,99.90
2019-03-18T23:20:31.897Z,99.90
2019-03-18T23:23:01.565Z,99.90
2019-03-18T23:25:31.271Z,99.90
2019-03-18T23:28:01.965Z,99.90
2019-03-18T23:30:31.663Z,99.90
2019-03-18T23:33:01.355Z,99.90
2019-03-18T23:35:30.980Z,99.90
2019-03-18T23:38:00.693Z,99.90
2019-03-18T23:40:49.729Z,99.90
2019-03-18T23:43:34.705Z,99.90
2019-03-18T23:46:04.451Z,99.90
2019-03-18T23:48:34.046Z,99.90
2019-03-18T23:51:03.834Z,99.90
2019-03-18T23:53:33.554Z,99.90
2019-03-18T23:56:03.277Z,99.90
2019-03-18T23:58:32.928Z,99.90
